Time;durP1;ratioP1;P1;durP2;ratioP2;P2;SDS_P1;SDS_P2;PMS_P1;PMS_P2;Temp;Humidity;BMP_temperature;BMP_pressure;BME280_temperature;BME280_humidity;BME280_pressure;Samples;Min_cycle;Max_cycle;Signal;HPM_P1;HPM_P2
2022/04/22 00:01:21;;;;;;;;;;;18.30;56.40;;;;;;5005646;28;20028;-69
2022/04/22 00:03:46;;;;;;;;;;;18.40;56.50;;;;;;5006244;28;20004;-69
2022/04/22 00:06:12;;;;;;;;;;;18.30;56.40;;;;;;4989498;28;19913;-71
2022/04/22 00:08:37;;;;;;;;;;;18.30;56.40;;;;;;4987878;28;20191;-69
2022/04/22 00:13:47;;;;;;;;;;;18.30;56.40;;;;;;5005413;28;19940;-71
2022/04/22 00:16:13;;;;;;;;;;;18.30;56.30;;;;;;4988856;28;20373;-71
2022/04/22 00:18:38;;;;;;;;;;;18.30;56.30;;;;;;4971024;28;20399;-70
2022/04/22 00:21:04;;;;;;;;;;;18.30;56.30;;;;;;5006672;28;19917;-69
2022/04/22 00:23:29;;;;;;;;;;;18.30;56.30;;;;;;5005989;28;20396;-68
2022/04/22 00:25:55;;;;;;;;;;;18.30;56.20;;;;;;4991270;28;19917;-67
2022/04/22 00:28:20;;;;;;;;;;;18.30;56.20;;;;;;4987859;28;20048;-69
2022/04/22 00:30:47;;;;;;;;;;;18.30;56.20;;;;;;4997552;28;19963;-70
2022/04/22 00:33:15;;;;;;;;;;;18.30;56.10;;;;;;4988366;28;20352;-69
2022/04/22 00:35:41;;;;;;;;;;;18.30;56.10;;;;;;4994860;28;19921;-68
2022/04/22 00:38:06;;;;;;;;;;;18.30;56.10;;;;;;4987979;28;20032;-71
2022/04/22 00:40:32;;;;;;;;;;;18.30;56.10;;;;;;4995619;28;19914;-71
2022/04/22 00:42:57;;;;;;;;;;;18.30;56.10;;;;;;5007042;28;20003;-70
2022/04/22 00:45:23;;;;;;;;;;;18.30;56.00;;;;;;4998981;28;19918;-70
2022/04/22 00:47:48;;;;;;;;;;;18.30;56.00;;;;;;4987854;28;19921;-70
2022/04/22 00:50:13;;;;;;;;;;;18.30;56.00;;;;;;4991020;28;20330;-70
2022/04/22 00:52:39;;;;;;;;;;;18.30;56.00;;;;;;5003381;28;19920;-70
2022/04/22 00:55:05;;;;;;;;;;;18.20;55.90;;;;;;4991028;28;19913;-71
2022/04/22 00:57:30;;;;;;;;;;;18.30;56.00;;;;;;4969973;28;20273;-72
2022/04/22 00:59:55;;;;;;;;;;;18.30;55.90;;;;;;4970538;28;20391;-71
2022/04/22 01:02:21;;;;;;;;;;;18.30;55.90;;;;;;5005011;28;19913;-70
2022/04/22 01:10:14;;;;;;;;;;;18.30;55.80;;;;;;5002953;28;19975;-71
2022/04/22 01:12:40;;;;;;;;;;;18.30;55.80;;;;;;4986342;28;19925;-72
2022/04/22 01:15:06;;;;;;;;;;;18.30;55.80;;;;;;5005168;28;19910;-70
2022/04/22 01:17:31;;;;;;;;;;;18.30;55.80;;;;;;5003965;28;20470;-71
2022/04/22 01:19:57;;;;;;;;;;;18.20;55.70;;;;;;5004284;28;19975;-70
2022/04/22 01:22:22;;;;;;;;;;;18.30;55.70;;;;;;4986778;28;20008;-71
2022/04/22 01:24:52;;;;;;;;;;;18.20;55.70;;;;;;5004048;28;19941;-71
2022/04/22 01:27:17;;;;;;;;;;;18.20;55.60;;;;;;5004387;28;20001;-72
2022/04/22 01:29:43;;;;;;;;;;;18.30;55.70;;;;;;5002657;28;19924;-72
2022/04/22 01:32:08;;;;;;;;;;;18.30;55.60;;;;;;4988758;28;19944;-69
2022/04/22 01:34:34;;;;;;;;;;;18.20;55.50;;;;;;4971462;28;19913;-70
2022/04/22 01:36:59;;;;;;;;;;;18.20;55.50;;;;;;4998405;28;19914;-71
2022/04/22 01:39:25;;;;;;;;;;;18.20;55.60;;;;;;5002908;28;19949;-71
2022/04/22 01:41:50;;;;;;;;;;;18.20;55.50;;;;;;4993404;28;19921;-72
2022/04/22 01:44:16;;;;;;;;;;;18.20;55.50;;;;;;4987944;28;19909;-71
2022/04/22 01:46:42;;;;;;;;;;;18.20;55.50;;;;;;4996442;28;20176;-70
2022/04/22 01:49:07;;;;;;;;;;;18.20;55.40;;;;;;5004637;28;19920;-69
2022/04/22 01:51:33;;;;;;;;;;;18.20;55.40;;;;;;4998137;28;19917;-70
2022/04/22 01:53:59;;;;;;;;;;;18.20;55.40;;;;;;4988950;28;19996;-70
2022/04/22 01:56:24;;;;;;;;;;;18.20;55.40;;;;;;4991996;28;19913;-73
2022/04/22 01:58:50;;;;;;;;;;;18.20;55.50;;;;;;5001905;28;20365;-72
2022/04/22 02:01:15;;;;;;;;;;;18.20;55.40;;;;;;5000021;28;19914;-71
2022/04/22 02:03:40;;;;;;;;;;;18.20;55.40;;;;;;4987594;28;19916;-72
2022/04/22 02:06:06;;;;;;;;;;;18.20;55.40;;;;;;4987410;28;19917;-71
2022/04/22 02:08:31;;;;;;;;;;;18.20;55.40;;;;;;5006059;28;20717;-72
2022/04/22 02:10:57;;;;;;;;;;;18.20;55.40;;;;;;4990301;28;19943;-72
2022/04/22 02:13:22;;;;;;;;;;;18.20;55.40;;;;;;4990392;28;19916;-73
2022/04/22 02:15:48;;;;;;;;;;;18.10;55.30;;;;;;4973746;28;19918;-72
2022/04/22 02:18:13;;;;;;;;;;;18.20;55.40;;;;;;5008402;28;19918;-71
2022/04/22 02:20:38;;;;;;;;;;;18.10;55.30;;;;;;5008216;28;19917;-72
2022/04/22 02:23:04;;;;;;;;;;;18.10;55.30;;;;;;5007586;28;19916;-73
2022/04/22 02:25:29;;;;;;;;;;;18.20;55.40;;;;;;5008134;28;19914;-72
2022/04/22 02:30:39;;;;;;;;;;;18.10;55.20;;;;;;5007055;28;19916;-73
2022/04/22 02:33:04;;;;;;;;;;;18.20;55.20;;;;;;5003215;28;19914;-71
2022/04/22 02:35:30;;;;;;;;;;;18.20;55.20;;;;;;5006387;28;19967;-71
2022/04/22 02:37:55;;;;;;;;;;;18.20;55.10;;;;;;4994022;28;19933;-71
2022/04/22 02:45:49;;;;;;;;;;;18.20;55.10;;;;;;5008141;28;19975;-72
2022/04/22 02:48:14;;;;;;;;;;;18.30;55.10;;;;;;5007409;28;19914;-70
2022/04/22 02:50:40;;;;;;;;;;;18.20;55.00;;;;;;4989589;28;19913;-73
2022/04/22 02:53:05;;;;;;;;;;;18.20;55.10;;;;;;5008348;28;19932;-72
2022/04/22 02:55:30;;;;;;;;;;;18.30;55.10;;;;;;4990102;28;19980;-72
2022/04/22 02:57:56;;;;;;;;;;;18.30;55.10;;;;;;4996996;28;19946;-71
2022/04/22 03:00:22;;;;;;;;;;;18.30;55.10;;;;;;5006547;28;20497;-72
2022/04/22 03:02:48;;;;;;;;;;;18.30;55.70;;;;;;4995771;28;19913;-71
2022/04/22 03:05:13;;;;;;;;;;;18.30;55.10;;;;;;5006399;28;19965;-72
2022/04/22 03:07:39;;;;;;;;;;;18.30;55.10;;;;;;5000757;28;20292;-70
2022/04/22 03:10:04;;;;;;;;;;;18.30;55.10;;;;;;5006761;28;19917;-72
2022/04/22 03:12:30;;;;;;;;;;;18.30;55.00;;;;;;4992911;28;20009;-71
2022/04/22 03:14:56;;;;;;;;;;;18.30;55.00;;;;;;5006003;28;19918;-72
2022/04/22 03:17:23;;;;;;;;;;;18.30;55.00;;;;;;5005022;28;20280;-70
2022/04/22 03:19:48;;;;;;;;;;;18.30;55.00;;;;;;5004350;28;19913;-69
2022/04/22 03:22:13;;;;;;;;;;;18.30;55.00;;;;;;5005375;28;20594;-71
2022/04/22 03:24:39;;;;;;;;;;;18.30;55.00;;;;;;5006967;28;19920;-71
2022/04/22 03:27:04;;;;;;;;;;;18.30;54.90;;;;;;5007025;28;19914;-70
2022/04/22 03:29:30;;;;;;;;;;;18.30;55.00;;;;;;5004821;28;19940;-71
2022/04/22 03:31:55;;;;;;;;;;;18.30;54.90;;;;;;5005542;28;19915;-71
2022/04/22 03:34:22;;;;;;;;;;;18.30;54.90;;;;;;4988706;28;19944;-73
2022/04/22 03:36:49;;;;;;;;;;;18.40;55.00;;;;;;4973702;28;19913;-71
2022/04/22 03:39:14;;;;;;;;;;;18.40;55.00;;;;;;4988107;28;19924;-70
2022/04/22 03:41:40;;;;;;;;;;;18.40;55.00;;;;;;4988486;28;19917;-72
2022/04/22 03:44:06;;;;;;;;;;;18.30;54.90;;;;;;5002049;28;19937;-73
2022/04/22 03:46:32;;;;;;;;;;;18.40;55.00;;;;;;5003367;28;19921;-71
2022/04/22 03:49:00;;;;;;;;;;;18.40;54.90;;;;;;4986130;28;19917;-72
2022/04/22 03:51:26;;;;;;;;;;;18.40;54.90;;;;;;5004161;28;19992;-72
2022/04/22 03:53:52;;;;;;;;;;;18.30;54.80;;;;;;4982579;28;19921;-71
2022/04/22 03:59:02;;;;;;;;;;;18.30;54.80;;;;;;4994213;28;19920;-68
2022/04/22 04:01:27;;;;;;;;;;;18.30;54.80;;;;;;5002344;28;19917;-71
2022/04/22 04:03:52;;;;;;;;;;;18.40;54.90;;;;;;4995315;28;19910;-70
2022/04/22 04:06:18;;;;;;;;;;;18.40;54.80;;;;;;4988291;28;19914;-69
2022/04/22 04:15:57;;;;;;;;;;;18.30;54.70;;;;;;4993602;28;19940;-69
2022/04/22 04:16:57;;;;;;;;;;;18.30;54.70;;;;;;5006102;28;19997;-71
2022/04/22 04:24:51;;;;;;;;;;;18.40;54.80;;;;;;5005923;28;20459;-70
2022/04/22 04:27:16;;;;;;;;;;;18.30;54.70;;;;;;5002220;28;19917;-72
2022/04/22 04:29:42;;;;;;;;;;;18.30;54.70;;;;;;5002316;28;19914;-69
2022/04/22 04:32:07;;;;;;;;;;;18.30;54.70;;;;;;4985989;28;19909;-72
2022/04/22 04:34:33;;;;;;;;;;;18.30;54.70;;;;;;5005830;28;19913;-70
2022/04/22 04:36:58;;;;;;;;;;;18.40;54.80;;;;;;4987848;28;19956;-72
2022/04/22 04:39:24;;;;;;;;;;;18.40;54.80;;;;;;5004384;28;19974;-69
2022/04/22 04:41:49;;;;;;;;;;;18.40;54.80;;;;;;4971243;28;19914;-68
2022/04/22 04:44:15;;;;;;;;;;;18.40;54.90;;;;;;5002553;28;19921;-73
2022/04/22 04:46:40;;;;;;;;;;;18.40;55.60;;;;;;5003815;28;19958;-69
2022/04/22 04:49:06;;;;;;;;;;;18.40;55.60;;;;;;5004163;28;20391;-67
2022/04/22 04:51:31;;;;;;;;;;;18.40;55.50;;;;;;4986997;28;19910;-69
2022/04/22 04:53:57;;;;;;;;;;;18.40;55.30;;;;;;5004551;28;19921;-68
2022/04/22 04:56:22;;;;;;;;;;;18.40;55.30;;;;;;5005781;28;19917;-70
2022/04/22 04:58:47;;;;;;;;;;;18.50;55.20;;;;;;5004353;28;19976;-69
2022/04/22 05:01:13;;;;;;;;;;;18.50;55.10;;;;;;5004947;28;19920;-68
2022/04/22 05:03:39;;;;;;;;;;;18.50;55.00;;;;;;4987269;28;20380;-69
2022/04/22 05:06:04;;;;;;;;;;;18.50;54.90;;;;;;5005690;28;19913;-69
2022/04/22 05:08:30;;;;;;;;;;;18.60;54.90;;;;;;5003011;28;19917;-69
2022/04/22 05:10:55;;;;;;;;;;;18.50;54.80;;;;;;4986681;28;19922;-70
2022/04/22 05:13:21;;;;;;;;;;;18.50;54.70;;;;;;5003614;28;19921;-69
2022/04/22 05:15:50;;;;;;;;;;;18.60;55.00;;;;;;4983400;28;20358;-68
2022/04/22 05:18:16;;;;;;;;;;;18.60;54.90;;;;;;5004658;28;19922;-69
2022/04/22 05:20:41;;;;;;;;;;;18.50;54.90;;;;;;5002930;28;19980;-69
2022/04/22 05:23:07;;;;;;;;;;;18.60;54.90;;;;;;4970721;28;20329;-68
2022/04/22 05:25:32;;;;;;;;;;;18.60;55.00;;;;;;5004562;28;19917;-69
2022/04/22 05:27:58;;;;;;;;;;;18.60;55.00;;;;;;5000706;28;20496;-68
2022/04/22 05:33:07;;;;;;;;;;;18.60;54.90;;;;;;4988970;28;20310;-69
2022/04/22 05:35:33;;;;;;;;;;;18.60;54.90;;;;;;4995613;28;19917;-70
2022/04/22 05:37:59;;;;;;;;;;;18.60;55.30;;;;;;5003628;28;19987;-69
2022/04/22 05:40:29;;;;;;;;;;;18.70;56.30;;;;;;5002851;28;19914;-68
2022/04/22 05:42:54;;;;;;;;;;;18.70;56.20;;;;;;4987445;28;19924;-71
2022/04/22 05:45:20;;;;;;;;;;;18.70;55.70;;;;;;4981582;28;20146;-70
2022/04/22 05:47:45;;;;;;;;;;;18.70;55.90;;;;;;5009847;28;20419;-69
2022/04/22 05:50:11;;;;;;;;;;;18.70;56.10;;;;;;5009284;28;19953;-69
2022/04/22 05:52:37;;;;;;;;;;;18.70;56.20;;;;;;4976010;28;20440;-71
2022/04/22 05:55:03;;;;;;;;;;;18.70;56.30;;;;;;4995229;28;19938;-72
2022/04/22 05:57:31;;;;;;;;;;;18.70;56.30;;;;;;4992694;28;19967;-70
2022/04/22 05:59:57;;;;;;;;;;;18.70;56.30;;;;;;4992212;28;19975;-71
2022/04/22 06:02:23;;;;;;;;;;;18.70;56.40;;;;;;5010539;28;20033;-69
2022/04/22 06:04:48;;;;;;;;;;;18.70;56.50;;;;;;5010686;28;20184;-69
2022/04/22 06:07:14;;;;;;;;;;;18.70;56.40;;;;;;5010893;28;20316;-70
2022/04/22 06:12:23;;;;;;;;;;;18.70;56.40;;;;;;5009363;28;19924;-70
2022/04/22 06:14:49;;;;;;;;;;;18.70;56.40;;;;;;5010185;28;19917;-69
2022/04/22 06:17:14;;;;;;;;;;;18.70;56.40;;;;;;5009185;28;19964;-67
2022/04/22 06:19:40;;;;;;;;;;;18.70;56.40;;;;;;5010348;28;20390;-69
2022/04/22 06:22:05;;;;;;;;;;;18.70;56.40;;;;;;4994232;28;20394;-68
2022/04/22 06:24:31;;;;;;;;;;;18.70;56.20;;;;;;5010507;28;19920;-69
2022/04/22 06:26:56;;;;;;;;;;;18.70;55.80;;;;;;5006344;28;20526;-68
2022/04/22 06:29:22;;;;;;;;;;;18.70;55.70;;;;;;5010264;28;19913;-70
2022/04/22 06:31:47;;;;;;;;;;;18.60;55.20;;;;;;4997302;28;19918;-70
2022/04/22 06:34:13;;;;;;;;;;;18.60;55.00;;;;;;5010820;28;19913;-68
2022/04/22 06:36:39;;;;;;;;;;;18.60;54.80;;;;;;5011298;28;20004;-69
2022/04/22 06:39:04;;;;;;;;;;;18.60;54.70;;;;;;5010469;28;19922;-71
2022/04/22 06:46:58;;;;;;;;;;;18.60;54.50;;;;;;5003993;28;19948;-68
2022/04/22 06:49:23;;;;;;;;;;;18.60;54.50;;;;;;5010223;28;19914;-69
2022/04/22 06:51:49;;;;;;;;;;;18.60;54.70;;;;;;5001154;28;20368;-68
2022/04/22 06:54:15;;;;;;;;;;;18.60;55.20;;;;;;5007577;28;20368;-69
2022/04/22 06:56:40;;;;;;;;;;;18.60;55.50;;;;;;4997216;28;19914;-69
2022/04/22 06:59:06;;;;;;;;;;;18.50;55.60;;;;;;5007234;28;19917;-69
2022/04/22 07:01:32;;;;;;;;;;;18.50;55.60;;;;;;5001360;28;19945;-68
2022/04/22 07:03:58;;;;;;;;;;;18.50;55.60;;;;;;4989677;28;19921;-68
2022/04/22 07:06:23;;;;;;;;;;;18.50;55.50;;;;;;5008009;28;19917;-71
2022/04/22 07:08:49;;;;;;;;;;;18.50;56.20;;;;;;5006620;28;19921;-68
2022/04/22 07:11:26;;;;;;;;;;;18.50;55.60;;;;;;5007839;28;19945;-70
2022/04/22 07:13:52;;;;;;;;;;;18.50;55.60;;;;;;4989049;28;19976;-69
2022/04/22 07:16:18;;;;;;;;;;;18.50;55.60;;;;;;5007335;28;19913;-71
2022/04/22 07:18:43;;;;;;;;;;;18.40;55.60;;;;;;4973524;28;20550;-69
2022/04/22 07:21:09;;;;;;;;;;;18.40;55.60;;;;;;5006912;28;19909;-68
2022/04/22 07:23:34;;;;;;;;;;;18.40;55.70;;;;;;5005791;28;19952;-71
2022/04/22 07:26:00;;;;;;;;;;;18.40;55.70;;;;;;5009022;28;19944;-68
2022/04/22 07:28:26;;;;;;;;;;;18.40;55.80;;;;;;4988587;28;20432;-70
2022/04/22 07:30:51;;;;;;;;;;;18.40;55.80;;;;;;4988937;28;20099;-68
2022/04/22 07:33:17;;;;;;;;;;;18.40;55.90;;;;;;4987596;28;19971;-69
2022/04/22 07:35:42;;;;;;;;;;;18.40;55.90;;;;;;5006607;28;19960;-68
2022/04/22 07:38:10;;;;;;;;;;;18.40;55.90;;;;;;5006919;28;20330;-68
2022/04/22 07:40:37;;;;;;;;;;;18.40;56.00;;;;;;5006548;28;19925;-69
2022/04/22 07:48:31;;;;;;;;;;;18.40;56.00;;;;;;5005033;28;20353;-69
2022/04/22 07:50:56;;;;;;;;;;;18.40;55.90;;;;;;5005586;28;19989;-70
2022/04/22 07:53:22;;;;;;;;;;;18.40;56.00;;;;;;4984928;28;20323;-70
2022/04/22 07:55:48;;;;;;;;;;;18.40;55.90;;;;;;5006327;28;19921;-68
2022/04/22 07:58:14;;;;;;;;;;;18.40;55.90;;;;;;4992892;28;19914;-69
2022/04/22 08:00:40;;;;;;;;;;;18.40;56.00;;;;;;4987446;28;19952;-69
2022/04/22 08:03:06;;;;;;;;;;;18.40;55.90;;;;;;5006976;28;19995;-68
2022/04/22 08:05:32;;;;;;;;;;;18.30;55.90;;;;;;5004101;28;19909;-68
2022/04/22 08:07:57;;;;;;;;;;;18.30;55.90;;;;;;5005171;28;19916;-68
2022/04/22 08:10:22;;;;;;;;;;;18.40;55.90;;;;;;5004753;28;19917;-70
2022/04/22 08:12:48;;;;;;;;;;;18.30;55.90;;;;;;5005648;28;20736;-68
2022/04/22 08:15:13;;;;;;;;;;;18.40;55.90;;;;;;5005585;28;19920;-68
2022/04/22 08:17:39;;;;;;;;;;;18.30;55.90;;;;;;5000197;28;19917;-68
2022/04/22 08:20:05;;;;;;;;;;;18.30;55.90;;;;;;4987788;28;20288;-67
2022/04/22 08:22:30;;;;;;;;;;;18.30;55.90;;;;;;4989862;28;19913;-68
2022/04/22 08:24:56;;;;;;;;;;;18.30;55.90;;;;;;4993866;28;20410;-71
2022/04/22 08:27:22;;;;;;;;;;;18.30;55.90;;;;;;5005290;28;19972;-70
2022/04/22 08:29:47;;;;;;;;;;;18.40;55.90;;;;;;4987828;28;20322;-69
2022/04/22 08:32:13;;;;;;;;;;;18.30;55.90;;;;;;5005528;28;19909;-69
2022/04/22 08:34:38;;;;;;;;;;;18.30;55.90;;;;;;5006838;28;19959;-70
2022/04/22 08:37:04;;;;;;;;;;;18.40;56.00;;;;;;5005436;28;20287;-72
2022/04/22 08:39:29;;;;;;;;;;;18.30;55.90;;;;;;5004376;28;19917;-68
2022/04/22 08:41:55;;;;;;;;;;;18.30;55.90;;;;;;4988060;28;20399;-68
2022/04/22 08:44:20;;;;;;;;;;;18.30;55.90;;;;;;5005891;28;19909;-71
2022/04/22 08:52:14;;;;;;;;;;;18.40;56.00;;;;;;5004479;28;19937;-68
2022/04/22 08:54:43;;;;;;;;;;;18.30;55.90;;;;;;4988208;28;20637;-69
2022/04/22 08:57:09;;;;;;;;;;;18.30;55.90;;;;;;5005272;28;19963;-68
2022/04/22 08:59:35;;;;;;;;;;;18.30;55.90;;;;;;5005490;28;19921;-69
2022/04/22 09:02:01;;;;;;;;;;;18.30;55.90;;;;;;5003726;28;19921;-68
2022/04/22 09:04:26;;;;;;;;;;;18.30;55.90;;;;;;5003503;28;20003;-67
2022/04/22 09:06:52;;;;;;;;;;;18.30;55.90;;;;;;4986336;28;19913;-68
2022/04/22 09:09:18;;;;;;;;;;;18.30;55.90;;;;;;4989685;28;19909;-67
2022/04/22 09:11:43;;;;;;;;;;;18.30;55.90;;;;;;5004375;28;20431;-70
2022/04/22 09:14:09;;;;;;;;;;;18.30;55.90;;;;;;5004813;28;19924;-69
2022/04/22 09:16:34;;;;;;;;;;;18.40;56.00;;;;;;5004038;28;19921;-68
2022/04/22 09:19:00;;;;;;;;;;;18.40;56.00;;;;;;5002783;28;19924;-68
2022/04/22 09:21:26;;;;;;;;;;;18.30;55.90;;;;;;5004554;28;19918;-66
2022/04/22 09:23:53;;;;;;;;;;;18.30;55.90;;;;;;4982906;28;19961;-64
2022/04/22 09:26:20;;;;;;;;;;;18.30;55.90;;;;;;5004895;28;20406;-68
2022/04/22 09:29:02;;;;;;;;;;;18.30;55.90;;;;;;4998695;28;19918;-67
2022/04/22 09:31:27;;;;;;;;;;;18.30;55.90;;;;;;5004540;28;19920;-67
2022/04/22 09:33:53;;;;;;;;;;;18.30;55.90;;;;;;4981935;28;19917;-65
2022/04/22 09:42:48;;;;;;;;;;;18.30;56.00;;;;;;5004170;28;20340;-64
2022/04/22 09:44:56;;;;;;;;;;;18.30;56.00;;;;;;5000727;28;20269;-67
2022/04/22 09:47:21;;;;;;;;;;;18.30;55.90;;;;;;4986917;28;19917;-67
2022/04/22 09:49:47;;;;;;;;;;;18.30;55.90;;;;;;4991021;28;20004;-66
2022/04/22 09:52:12;;;;;;;;;;;18.30;55.90;;;;;;4985063;28;20381;-67
2022/04/22 09:54:38;;;;;;;;;;;18.30;55.90;;;;;;4991123;28;19949;-64
2022/04/22 09:57:03;;;;;;;;;;;18.30;55.90;;;;;;5004216;28;19921;-69
2022/04/22 09:59:30;;;;;;;;;;;18.30;55.90;;;;;;4984820;28;20343;-67
2022/04/22 10:01:56;;;;;;;;;;;18.30;55.90;;;;;;4984752;28;19914;-68
2022/04/22 10:04:21;;;;;;;;;;;18.30;55.90;;;;;;5019015;28;19956;-67
2022/04/22 10:06:47;;;;;;;;;;;18.30;55.90;;;;;;5003779;28;20000;-71
2022/04/22 10:09:15;;;;;;;;;;;18.30;55.90;;;;;;5004406;28;19916;-69
2022/04/22 10:11:41;;;;;;;;;;;18.30;55.90;;;;;;5004157;28;20004;-69
2022/04/22 10:14:09;;;;;;;;;;;18.30;55.90;;;;;;5002787;28;19920;-71
2022/04/22 10:16:34;;;;;;;;;;;18.30;55.90;;;;;;4986943;28;19971;-64
2022/04/22 10:19:01;;;;;;;;;;;18.30;55.90;;;;;;5002889;28;19921;-67
2022/04/22 10:21:26;;;;;;;;;;;18.30;55.90;;;;;;5003664;28;19909;-66
2022/04/22 10:23:52;;;;;;;;;;;18.30;55.80;;;;;;5004672;28;19916;-68
2022/04/22 10:26:17;;;;;;;;;;;18.30;55.80;;;;;;4986531;28;19918;-71
2022/04/22 10:28:44;;;;;;;;;;;18.30;55.80;;;;;;4986349;28;19914;-69
2022/04/22 10:31:09;;;;;;;;;;;18.30;55.90;;;;;;5005080;28;20398;-67
2022/04/22 10:33:42;;;;;;;;;;;18.30;55.90;;;;;;5008178;28;19968;-67
2022/04/22 10:36:07;;;;;;;;;;;18.30;55.90;;;;;;4992647;28;20947;-66
2022/04/22 10:38:38;;;;;;;;;;;18.30;55.90;;;;;;4989218;28;19922;-66
2022/04/22 10:41:05;;;;;;;;;;;18.30;55.90;;;;;;5002526;28;19944;-66
2022/04/22 10:43:31;;;;;;;;;;;18.30;56.00;;;;;;5007664;28;20368;-68
2022/04/22 10:48:41;;;;;;;;;;;18.30;55.90;;;;;;4997448;28;19933;-69
2022/04/22 10:51:09;;;;;;;;;;;18.30;55.90;;;;;;5007786;28;19913;-70
2022/04/22 10:53:46;;;;;;;;;;;18.30;55.90;;;;;;5007244;28;19914;-70
2022/04/22 10:56:43;;;;;;;;;;;18.30;55.90;;;;;;4994863;28;20559;-67
2022/04/22 10:59:21;;;;;;;;;;;18.30;55.90;;;;;;4981154;28;20005;-67
2022/04/22 11:01:46;;;;;;;;;;;18.30;55.90;;;;;;5006619;28;19960;-68
2022/04/22 11:04:23;;;;;;;;;;;18.30;55.90;;;;;;5005909;28;19945;-68
2022/04/22 11:06:48;;;;;;;;;;;18.30;55.90;;;;;;5006828;28;20666;-65
2022/04/22 11:09:29;;;;;;;;;;;18.30;55.90;;;;;;5006322;28;19965;-68
2022/04/22 11:11:55;;;;;;;;;;;18.30;56.00;;;;;;5007071;28;19971;-69
2022/04/22 11:14:21;;;;;;;;;;;18.30;56.00;;;;;;5007117;28;19918;-67
2022/04/22 11:16:46;;;;;;;;;;;18.30;56.00;;;;;;4991111;28;20041;-68
2022/04/22 11:19:23;;;;;;;;;;;18.30;56.00;;;;;;5005910;28;19917;-68
2022/04/22 11:21:52;;;;;;;;;;;18.30;55.90;;;;;;5002641;28;19921;-68
2022/04/22 11:24:21;;;;;;;;;;;18.30;55.90;;;;;;5005647;28;19984;-67
2022/04/22 11:26:47;;;;;;;;;;;18.30;56.00;;;;;;4992524;28;19921;-67
2022/04/22 11:29:13;;;;;;;;;;;18.30;55.90;;;;;;4987926;28;19917;-70
2022/04/22 11:31:38;;;;;;;;;;;18.30;56.00;;;;;;4999757;28;20004;-64
2022/04/22 11:34:07;;;;;;;;;;;18.30;56.00;;;;;;5006797;28;19914;-67
2022/04/22 11:36:45;;;;;;;;;;;18.30;56.00;;;;;;5005924;28;19936;-68
2022/04/22 11:39:15;;;;;;;;;;;18.30;56.00;;;;;;4979013;28;19922;-70
2022/04/22 11:42:10;;;;;;;;;;;18.30;56.10;;;;;;5005965;28;20000;-68
2022/04/22 11:44:36;;;;;;;;;;;18.30;56.00;;;;;;4998970;28;20399;-67
2022/04/22 11:47:01;;;;;;;;;;;18.30;56.10;;;;;;5008615;28;19922;-69
2022/04/22 11:49:31;;;;;;;;;;;18.30;56.10;;;;;;5006554;28;20404;-67
2022/04/22 11:51:56;;;;;;;;;;;18.30;56.10;;;;;;5006506;28;19924;-63
2022/04/22 11:54:22;;;;;;;;;;;18.30;56.10;;;;;;5005200;28;19917;-70
2022/04/22 11:56:49;;;;;;;;;;;18.30;56.10;;;;;;4995502;28;23282;-67
2022/04/22 11:59:14;;;;;;;;;;;18.30;56.10;;;;;;4988037;28;20059;-67
2022/04/22 12:10:14;;;;;;;;;;;18.30;56.10;;;;;;4980720;28;19921;-66
2022/04/22 12:12:46;;;;;;;;;;;18.30;56.10;;;;;;4988906;28;19918;-67
2022/04/22 12:15:12;;;;;;;;;;;18.30;56.10;;;;;;4989793;28;20012;-67
2022/04/22 12:17:37;;;;;;;;;;;18.30;56.10;;;;;;5006967;28;19914;-66
2022/04/22 12:20:03;;;;;;;;;;;18.30;56.10;;;;;;5005349;28;20435;-69
2022/04/22 12:22:29;;;;;;;;;;;18.30;56.10;;;;;;4994173;28;19913;-68
2022/04/22 12:25:06;;;;;;;;;;;18.30;56.10;;;;;;4988513;28;20321;-67
2022/04/22 12:27:31;;;;;;;;;;;18.30;56.10;;;;;;5006816;28;19917;-69
2022/04/22 12:30:00;;;;;;;;;;;18.30;56.10;;;;;;5006396;28;19914;-67
2022/04/22 12:32:26;;;;;;;;;;;18.30;56.10;;;;;;4995702;28;19909;-67
2022/04/22 12:34:51;;;;;;;;;;;18.30;56.10;;;;;;5005951;28;20423;-65
2022/04/22 12:37:17;;;;;;;;;;;18.30;56.10;;;;;;4995592;28;19921;-63
2022/04/22 12:39:49;;;;;;;;;;;18.30;56.10;;;;;;5004501;28;19917;-68
2022/04/22 12:42:15;;;;;;;;;;;18.30;56.10;;;;;;5006196;28;19954;-62
2022/04/22 12:44:42;;;;;;;;;;;18.30;56.10;;;;;;5006076;28;20245;-68
2022/04/22 12:52:43;;;;;;;;;;;18.20;56.10;;;;;;5003870;28;19921;-69
2022/04/22 12:55:08;;;;;;;;;;;18.30;56.10;;;;;;5004481;28;21601;-67
2022/04/22 12:57:35;;;;;;;;;;;18.30;56.10;;;;;;5004534;28;19925;-69
2022/04/22 13:00:00;;;;;;;;;;;18.30;56.70;;;;;;5004388;28;19924;-68
2022/04/22 13:02:26;;;;;;;;;;;18.30;56.10;;;;;;5004931;28;19913;-71
2022/04/22 13:04:53;;;;;;;;;;;18.30;56.10;;;;;;5004520;28;19910;-67
2022/04/22 13:07:18;;;;;;;;;;;18.30;56.10;;;;;;5004552;28;19975;-70
2022/04/22 13:09:44;;;;;;;;;;;18.30;56.00;;;;;;5003169;28;19917;-70
2022/04/22 13:12:09;;;;;;;;;;;18.30;56.00;;;;;;5004852;28;19918;-68
2022/04/22 13:14:35;;;;;;;;;;;18.40;56.00;;;;;;5004727;28;20557;-67
2022/04/22 13:17:01;;;;;;;;;;;18.40;55.90;;;;;;5004561;28;19921;-70
2022/04/22 13:19:27;;;;;;;;;;;18.40;55.90;;;;;;5004331;28;19918;-69
2022/04/22 13:21:52;;;;;;;;;;;18.40;55.90;;;;;;5003674;28;20323;-68
2022/04/22 13:24:17;;;;;;;;;;;18.40;55.80;;;;;;5004749;28;20415;-69
2022/04/22 13:26:43;;;;;;;;;;;18.40;55.90;;;;;;5004232;28;19913;-70
2022/04/22 13:29:08;;;;;;;;;;;18.40;55.90;;;;;;5004772;28;19952;-69
2022/04/22 13:31:35;;;;;;;;;;;18.40;55.90;;;;;;5003808;28;19918;-68
2022/04/22 13:34:03;;;;;;;;;;;18.40;55.90;;;;;;5004067;28;19925;-69
2022/04/22 13:36:32;;;;;;;;;;;18.40;55.80;;;;;;5004934;28;19964;-69
2022/04/22 13:38:57;;;;;;;;;;;18.50;55.80;;;;;;5003942;28;19925;-68
2022/04/22 13:41:23;;;;;;;;;;;18.50;55.90;;;;;;5004107;28;19976;-69
2022/04/22 13:43:48;;;;;;;;;;;18.50;55.80;;;;;;4992560;28;19953;-67
2022/04/22 13:54:25;;;;;;;;;;;18.50;55.70;;;;;;5004675;28;19917;-68
2022/04/22 13:56:51;;;;;;;;;;;18.50;55.80;;;;;;5004077;28;19913;-69
2022/04/22 13:59:16;;;;;;;;;;;18.60;55.80;;;;;;5004603;28;20335;-69
2022/04/22 14:01:42;;;;;;;;;;;18.50;55.80;;;;;;5004362;28;19992;-71
2022/04/22 14:04:08;;;;;;;;;;;18.50;55.80;;;;;;5006443;28;19909;-70
2022/04/22 14:06:33;;;;;;;;;;;18.50;55.80;;;;;;5007897;28;19929;-68
2022/04/22 14:08:59;;;;;;;;;;;18.50;55.70;;;;;;4998641;28;19963;-63
2022/04/22 14:11:27;;;;;;;;;;;18.50;55.70;;;;;;5008122;28;19917;-68
2022/04/22 14:13:52;;;;;;;;;;;18.50;55.70;;;;;;4999892;28;19914;-69
2022/04/22 14:16:18;;;;;;;;;;;18.50;55.70;;;;;;4990567;28;19917;-68
2022/04/22 14:18:43;;;;;;;;;;;18.50;55.70;;;;;;5008777;28;19945;-68
2022/04/22 14:21:09;;;;;;;;;;;18.50;55.70;;;;;;4990311;28;21411;-70
2022/04/22 14:23:34;;;;;;;;;;;18.50;55.70;;;;;;5002696;28;19917;-69
2022/04/22 14:26:00;;;;;;;;;;;18.50;55.70;;;;;;4990187;28;20424;-68
2022/04/22 14:28:25;;;;;;;;;;;18.50;55.70;;;;;;5007289;28;19913;-69
2022/04/22 14:30:51;;;;;;;;;;;18.50;55.70;;;;;;5007990;28;19925;-70
2022/04/22 14:33:17;;;;;;;;;;;18.50;55.70;;;;;;5006521;28;19917;-64
2022/04/22 14:35:42;;;;;;;;;;;18.50;55.70;;;;;;5008271;28;19910;-68
2022/04/22 14:38:07;;;;;;;;;;;18.50;55.70;;;;;;4990509;28;19971;-64
2022/04/22 14:40:33;;;;;;;;;;;18.50;55.70;;;;;;5005968;28;19957;-68
2022/04/22 14:42:58;;;;;;;;;;;18.50;55.80;;;;;;5007248;28;19917;-69
2022/04/22 14:45:26;;;;;;;;;;;18.50;55.80;;;;;;5007667;28;19914;-67
2022/04/22 14:47:51;;;;;;;;;;;18.50;55.90;;;;;;4990262;28;19918;-69
2022/04/22 14:50:17;;;;;;;;;;;18.50;55.90;;;;;;5003626;28;20491;-68
2022/04/22 14:52:43;;;;;;;;;;;18.50;55.90;;;;;;5008216;28;19925;-67
2022/04/22 14:55:08;;;;;;;;;;;18.50;55.90;;;;;;5006892;28;19924;-66
2022/04/22 14:57:34;;;;;;;;;;;18.50;55.90;;;;;;4990444;28;20379;-68
2022/04/22 14:59:59;;;;;;;;;;;18.50;55.90;;;;;;5006937;28;20269;-69
2022/04/22 15:02:25;;;;;;;;;;;18.50;56.00;;;;;;5007330;28;19913;-67
2022/04/22 15:04:52;;;;;;;;;;;18.50;56.00;;;;;;5007728;28;20008;-68
2022/04/22 15:07:19;;;;;;;;;;;18.50;56.00;;;;;;5006758;28;19910;-63
2022/04/22 15:09:44;;;;;;;;;;;18.50;56.00;;;;;;5006767;28;19910;-69
2022/04/22 15:12:10;;;;;;;;;;;18.50;56.00;;;;;;5007131;28;19921;-69
2022/04/22 15:14:35;;;;;;;;;;;18.50;56.10;;;;;;5007415;28;19944;-66
2022/04/22 15:17:01;;;;;;;;;;;18.40;56.00;;;;;;5004676;28;19913;-68
2022/04/22 15:25:06;;;;;;;;;;;18.40;56.10;;;;;;5007647;28;20303;-67
2022/04/22 15:27:31;;;;;;;;;;;18.40;56.10;;;;;;5007039;28;20505;-67
2022/04/22 15:29:57;;;;;;;;;;;18.40;56.10;;;;;;4977650;28;19914;-69
2022/04/22 15:32:23;;;;;;;;;;;18.40;56.10;;;;;;5007049;28;19952;-68
2022/04/22 15:34:49;;;;;;;;;;;18.40;56.20;;;;;;5003170;28;19921;-68
2022/04/22 15:37:14;;;;;;;;;;;18.40;56.20;;;;;;4988979;28;19920;-67
2022/04/22 15:39:39;;;;;;;;;;;18.40;56.20;;;;;;5006573;28;19924;-67